sensor_id;sensor_type;location;lat;lon;timestamp;P1;durP1;ratioP1;P2;durP2;ratioP2
84244;SDS011;74383;44.552;18.100;2024-02-21T00:00:46;40.50;;;23.05;;
84244;SDS011;74383;44.552;18.100;2024-02-21T00:03:12;45.53;;;24.35;;
84244;SDS011;74383;44.552;18.100;2024-02-21T00:05:37;42.67;;;24.50;;
84244;SDS011;74383;44.552;18.100;2024-02-21T00:08:03;44.08;;;25.38;;
84244;SDS011;74383;44.552;18.100;2024-02-21T00:10:29;45.65;;;23.58;;
84244;SDS011;74383;44.552;18.100;2024-02-21T00:12:56;48.08;;;24.50;;
84244;SDS011;74383;44.552;18.100;2024-02-21T00:15:22;44.78;;;25.20;;
84244;SDS011;74383;44.552;18.100;2024-02-21T00:17:48;42.95;;;24.60;;
84244;SDS011;74383;44.552;18.100;2024-02-21T00:20:14;45.58;;;23.70;;
84244;SDS011;74383;44.552;18.100;2024-02-21T00:22:39;42.00;;;24.20;;
84244;SDS011;74383;44.552;18.100;2024-02-21T00:25:05;44.17;;;24.92;;
84244;SDS011;74383;44.552;18.100;2024-02-21T00:27:31;48.50;;;25.35;;
84244;SDS011;74383;44.552;18.100;2024-02-21T00:29:57;50.53;;;27.02;;
84244;SDS011;74383;44.552;18.100;2024-02-21T00:32:23;48.00;;;27.38;;
84244;SDS011;74383;44.552;18.100;2024-02-21T00:34:48;44.55;;;25.40;;
84244;SDS011;74383;44.552;18.100;2024-02-21T00:37:14;42.40;;;25.63;;
84244;SDS011;74383;44.552;18.100;2024-02-21T00:39:39;51.90;;;27.35;;
84244;SDS011;74383;44.552;18.100;2024-02-21T00:42:05;49.22;;;27.02;;
84244;SDS011;74383;44.552;18.100;2024-02-21T00:44:32;50.13;;;27.90;;
84244;SDS011;74383;44.552;18.100;2024-02-21T00:46:58;48.63;;;28.10;;
84244;SDS011;74383;44.552;18.100;2024-02-21T00:49:23;42.20;;;24.33;;
84244;SDS011;74383;44.552;18.100;2024-02-21T00:51:49;43.00;;;24.45;;
84244;SDS011;74383;44.552;18.100;2024-02-21T00:54:14;45.63;;;25.88;;
84244;SDS011;74383;44.552;18.100;2024-02-21T00:56:41;50.00;;;26.55;;
84244;SDS011;74383;44.552;18.100;2024-02-21T00:59:07;47.33;;;24.60;;
84244;SDS011;74383;44.552;18.100;2024-02-21T01:01:32;36.97;;;21.35;;
84244;SDS011;74383;44.552;18.100;2024-02-21T01:03:58;36.00;;;19.77;;
84244;SDS011;74383;44.552;18.100;2024-02-21T01:06:23;32.47;;;18.52;;
84244;SDS011;74383;44.552;18.100;2024-02-21T01:08:49;28.52;;;16.33;;
84244;SDS011;74383;44.552;18.100;2024-02-21T01:11:15;27.27;;;17.63;;
84244;SDS011;74383;44.552;18.100;2024-02-21T01:13:41;31.02;;;18.75;;
84244;SDS011;74383;44.552;18.100;2024-02-21T01:16:07;34.25;;;19.25;;
84244;SDS011;74383;44.552;18.100;2024-02-21T01:18:33;34.67;;;19.77;;
84244;SDS011;74383;44.552;18.100;2024-02-21T01:20:59;32.90;;;19.55;;
84244;SDS011;74383;44.552;18.100;2024-02-21T01:23:25;36.10;;;19.48;;
84244;SDS011;74383;44.552;18.100;2024-02-21T01:25:50;41.22;;;22.17;;
84244;SDS011;74383;44.552;18.100;2024-02-21T01:28:17;42.92;;;21.42;;
84244;SDS011;74383;44.552;18.100;2024-02-21T01:30:43;35.25;;;19.55;;
84244;SDS011;74383;44.552;18.100;2024-02-21T01:33:09;34.35;;;20.00;;
84244;SDS011;74383;44.552;18.100;2024-02-21T01:35:35;31.25;;;18.58;;
84244;SDS011;74383;44.552;18.100;2024-02-21T01:38:01;39.03;;;18.83;;
84244;SDS011;74383;44.552;18.100;2024-02-21T01:40:27;38.97;;;19.58;;
84244;SDS011;74383;44.552;18.100;2024-02-21T01:42:54;30.55;;;18.50;;
84244;SDS011;74383;44.552;18.100;2024-02-21T01:45:20;35.95;;;19.48;;
84244;SDS011;74383;44.552;18.100;2024-02-21T01:47:46;34.20;;;20.02;;
84244;SDS011;74383;44.552;18.100;2024-02-21T01:50:13;34.03;;;20.25;;
84244;SDS011;74383;44.552;18.100;2024-02-21T01:52:41;34.78;;;19.25;;
84244;SDS011;74383;44.552;18.100;2024-02-21T01:55:09;34.33;;;18.83;;
84244;SDS011;74383;44.552;18.100;2024-02-21T01:57:39;34.20;;;18.05;;
84244;SDS011;74383;44.552;18.100;2024-02-21T02:00:07;33.97;;;18.38;;
84244;SDS011;74383;44.552;18.100;2024-02-21T02:02:36;25.02;;;15.10;;
84244;SDS011;74383;44.552;18.100;2024-02-21T02:05:03;22.40;;;13.70;;
84244;SDS011;74383;44.552;18.100;2024-02-21T02:07:31;29.45;;;15.23;;
84244;SDS011;74383;44.552;18.100;2024-02-21T02:09:57;27.40;;;14.98;;
84244;SDS011;74383;44.552;18.100;2024-02-21T02:12:22;24.30;;;14.13;;
84244;SDS011;74383;44.552;18.100;2024-02-21T02:15:02;23.95;;;14.13;;
84244;SDS011;74383;44.552;18.100;2024-02-21T02:17:31;26.13;;;14.57;;
84244;SDS011;74383;44.552;18.100;2024-02-21T02:19:57;25.17;;;14.93;;
84244;SDS011;74383;44.552;18.100;2024-02-21T02:22:23;24.23;;;13.25;;
84244;SDS011;74383;44.552;18.100;2024-02-21T02:24:53;22.75;;;13.20;;
84244;SDS011;74383;44.552;18.100;2024-02-21T02:27:20;25.30;;;13.98;;
84244;SDS011;74383;44.552;18.100;2024-02-21T02:29:45;27.45;;;13.82;;
84244;SDS011;74383;44.552;18.100;2024-02-21T02:32:11;24.63;;;14.63;;
84244;SDS011;74383;44.552;18.100;2024-02-21T02:34:37;25.52;;;14.75;;
84244;SDS011;74383;44.552;18.100;2024-02-21T02:37:03;26.80;;;13.93;;
84244;SDS011;74383;44.552;18.100;2024-02-21T02:39:28;22.40;;;14.02;;
84244;SDS011;74383;44.552;18.100;2024-02-21T02:41:54;25.00;;;14.30;;
84244;SDS011;74383;44.552;18.100;2024-02-21T02:44:19;24.35;;;14.52;;
84244;SDS011;74383;44.552;18.100;2024-02-21T02:46:45;31.30;;;15.52;;
84244;SDS011;74383;44.552;18.100;2024-02-21T02:49:10;27.35;;;14.90;;
84244;SDS011;74383;44.552;18.100;2024-02-21T02:51:36;27.25;;;13.93;;
84244;SDS011;74383;44.552;18.100;2024-02-21T02:54:02;24.63;;;14.90;;
84244;SDS011;74383;44.552;18.100;2024-02-21T02:56:28;25.88;;;14.52;;
84244;SDS011;74383;44.552;18.100;2024-02-21T02:58:53;32.33;;;14.75;;
84244;SDS011;74383;44.552;18.100;2024-02-21T03:01:19;29.60;;;14.18;;
84244;SDS011;74383;44.552;18.100;2024-02-21T03:03:45;28.23;;;14.65;;
84244;SDS011;74383;44.552;18.100;2024-02-21T03:06:12;25.70;;;14.30;;
84244;SDS011;74383;44.552;18.100;2024-02-21T03:08:38;28.83;;;15.93;;
84244;SDS011;74383;44.552;18.100;2024-02-21T03:11:05;31.45;;;16.10;;
84244;SDS011;74383;44.552;18.100;2024-02-21T03:13:30;24.00;;;14.25;;
84244;SDS011;74383;44.552;18.100;2024-02-21T03:15:56;26.42;;;14.57;;
84244;SDS011;74383;44.552;18.100;2024-02-21T03:18:21;23.33;;;13.57;;
84244;SDS011;74383;44.552;18.100;2024-02-21T03:20:47;20.92;;;13.88;;
84244;SDS011;74383;44.552;18.100;2024-02-21T03:23:13;23.45;;;13.25;;
84244;SDS011;74383;44.552;18.100;2024-02-21T03:25:38;24.65;;;14.55;;
84244;SDS011;74383;44.552;18.100;2024-02-21T03:28:04;26.92;;;14.85;;
84244;SDS011;74383;44.552;18.100;2024-02-21T03:30:30;25.42;;;14.38;;
84244;SDS011;74383;44.552;18.100;2024-02-21T03:32:55;29.17;;;15.13;;
84244;SDS011;74383;44.552;18.100;2024-02-21T03:35:21;25.88;;;14.52;;
84244;SDS011;74383;44.552;18.100;2024-02-21T03:37:46;26.25;;;14.50;;
84244;SDS011;74383;44.552;18.100;2024-02-21T03:40:12;29.05;;;15.63;;
84244;SDS011;74383;44.552;18.100;2024-02-21T03:42:38;25.10;;;14.68;;
84244;SDS011;74383;44.552;18.100;2024-02-21T03:45:03;26.73;;;14.02;;
84244;SDS011;74383;44.552;18.100;2024-02-21T03:47:29;28.25;;;15.75;;
84244;SDS011;74383;44.552;18.100;2024-02-21T03:49:55;28.48;;;15.27;;
84244;SDS011;74383;44.552;18.100;2024-02-21T03:52:20;27.95;;;15.82;;
84244;SDS011;74383;44.552;18.100;2024-02-21T03:54:46;29.73;;;14.93;;
84244;SDS011;74383;44.552;18.100;2024-02-21T03:57:13;26.25;;;16.88;;
84244;SDS011;74383;44.552;18.100;2024-02-21T03:59:38;32.88;;;16.98;;
84244;SDS011;74383;44.552;18.100;2024-02-21T04:02:05;26.80;;;16.08;;
84244;SDS011;74383;44.552;18.100;2024-02-21T04:04:34;34.60;;;15.73;;
84244;SDS011;74383;44.552;18.100;2024-02-21T04:07:02;27.25;;;16.02;;
84244;SDS011;74383;44.552;18.100;2024-02-21T04:09:32;33.03;;;15.50;;
84244;SDS011;74383;44.552;18.100;2024-02-21T04:12:01;30.58;;;16.27;;
84244;SDS011;74383;44.552;18.100;2024-02-21T04:14:26;26.42;;;14.85;;
84244;SDS011;74383;44.552;18.100;2024-02-21T04:16:52;32.08;;;15.85;;
84244;SDS011;74383;44.552;18.100;2024-02-21T04:19:17;27.67;;;14.75;;
84244;SDS011;74383;44.552;18.100;2024-02-21T04:21:43;33.88;;;15.20;;
84244;SDS011;74383;44.552;18.100;2024-02-21T04:24:09;32.22;;;16.10;;
84244;SDS011;74383;44.552;18.100;2024-02-21T04:26:35;30.85;;;15.27;;
84244;SDS011;74383;44.552;18.100;2024-02-21T04:29:00;32.38;;;15.45;;
84244;SDS011;74383;44.552;18.100;2024-02-21T04:31:26;30.00;;;16.05;;
84244;SDS011;74383;44.552;18.100;2024-02-21T04:33:52;31.15;;;15.88;;
84244;SDS011;74383;44.552;18.100;2024-02-21T04:36:17;32.50;;;16.55;;
84244;SDS011;74383;44.552;18.100;2024-02-21T04:38:43;31.92;;;15.75;;
84244;SDS011;74383;44.552;18.100;2024-02-21T04:41:08;34.20;;;16.55;;
84244;SDS011;74383;44.552;18.100;2024-02-21T04:43:34;31.25;;;16.63;;
84244;SDS011;74383;44.552;18.100;2024-02-21T04:46:00;24.77;;;15.48;;
84244;SDS011;74383;44.552;18.100;2024-02-21T04:48:26;26.00;;;14.77;;
84244;SDS011;74383;44.552;18.100;2024-02-21T04:50:51;33.05;;;16.52;;
84244;SDS011;74383;44.552;18.100;2024-02-21T04:53:17;30.60;;;14.45;;
84244;SDS011;74383;44.552;18.100;2024-02-21T04:55:43;24.77;;;13.73;;
84244;SDS011;74383;44.552;18.100;2024-02-21T04:58:09;23.30;;;13.55;;
84244;SDS011;74383;44.552;18.100;2024-02-21T05:00:35;21.40;;;13.15;;
84244;SDS011;74383;44.552;18.100;2024-02-21T05:03:00;24.27;;;13.93;;
84244;SDS011;74383;44.552;18.100;2024-02-21T05:05:26;25.60;;;14.35;;
84244;SDS011;74383;44.552;18.100;2024-02-21T05:07:51;25.77;;;14.40;;
84244;SDS011;74383;44.552;18.100;2024-02-21T05:10:17;26.33;;;15.00;;
84244;SDS011;74383;44.552;18.100;2024-02-21T05:12:44;34.42;;;16.67;;
84244;SDS011;74383;44.552;18.100;2024-02-21T05:15:10;39.67;;;19.77;;
84244;SDS011;74383;44.552;18.100;2024-02-21T05:17:35;40.20;;;19.55;;
84244;SDS011;74383;44.552;18.100;2024-02-21T05:20:01;34.08;;;17.05;;
84244;SDS011;74383;44.552;18.100;2024-02-21T05:22:26;29.60;;;15.32;;
84244;SDS011;74383;44.552;18.100;2024-02-21T05:24:52;32.40;;;16.75;;
84244;SDS011;74383;44.552;18.100;2024-02-21T05:27:18;30.58;;;16.55;;
84244;SDS011;74383;44.552;18.100;2024-02-21T05:29:43;36.90;;;17.80;;
84244;SDS011;74383;44.552;18.100;2024-02-21T05:32:09;29.05;;;16.23;;
84244;SDS011;74383;44.552;18.100;2024-02-21T05:34:35;32.47;;;16.65;;
84244;SDS011;74383;44.552;18.100;2024-02-21T05:37:00;38.05;;;16.33;;
84244;SDS011;74383;44.552;18.100;2024-02-21T05:39:26;33.25;;;16.25;;
84244;SDS011;74383;44.552;18.100;2024-02-21T05:41:53;34.55;;;16.90;;
84244;SDS011;74383;44.552;18.100;2024-02-21T05:44:19;45.17;;;20.02;;
84244;SDS011;74383;44.552;18.100;2024-02-21T05:46:45;39.75;;;20.33;;
84244;SDS011;74383;44.552;18.100;2024-02-21T05:49:11;38.78;;;19.67;;
84244;SDS011;74383;44.552;18.100;2024-02-21T05:51:37;38.00;;;18.38;;
84244;SDS011;74383;44.552;18.100;2024-02-21T05:54:02;36.28;;;17.45;;
84244;SDS011;74383;44.552;18.100;2024-02-21T05:56:28;35.55;;;18.77;;
84244;SDS011;74383;44.552;18.100;2024-02-21T05:58:54;39.55;;;18.58;;
84244;SDS011;74383;44.552;18.100;2024-02-21T06:01:19;36.40;;;18.50;;
84244;SDS011;74383;44.552;18.100;2024-02-21T06:03:46;35.90;;;18.17;;
84244;SDS011;74383;44.552;18.100;2024-02-21T06:06:13;38.72;;;18.00;;
84244;SDS011;74383;44.552;18.100;2024-02-21T06:08:42;27.48;;;16.45;;
84244;SDS011;74383;44.552;18.100;2024-02-21T06:11:08;24.88;;;14.88;;
84244;SDS011;74383;44.552;18.100;2024-02-21T06:13:37;32.85;;;17.77;;
84244;SDS011;74383;44.552;18.100;2024-02-21T06:16:04;68.38;;;40.45;;
84244;SDS011;74383;44.552;18.100;2024-02-21T06:18:31;75.35;;;45.25;;
84244;SDS011;74383;44.552;18.100;2024-02-21T06:20:56;65.13;;;40.03;;
84244;SDS011;74383;44.552;18.100;2024-02-21T06:23:22;70.47;;;40.85;;
84244;SDS011;74383;44.552;18.100;2024-02-21T06:25:50;45.85;;;26.02;;
84244;SDS011;74383;44.552;18.100;2024-02-21T06:28:15;47.45;;;26.80;;
84244;SDS011;74383;44.552;18.100;2024-02-21T06:30:43;50.70;;;28.77;;
84244;SDS011;74383;44.552;18.100;2024-02-21T06:33:10;41.05;;;27.98;;
84244;SDS011;74383;44.552;18.100;2024-02-21T06:35:35;46.17;;;27.90;;
84244;SDS011;74383;44.552;18.100;2024-02-21T06:38:01;37.05;;;25.00;;
84244;SDS011;74383;44.552;18.100;2024-02-21T06:40:28;32.45;;;22.02;;
84244;SDS011;74383;44.552;18.100;2024-02-21T06:42:53;40.00;;;22.42;;
84244;SDS011;74383;44.552;18.100;2024-02-21T06:45:19;43.33;;;24.48;;
84244;SDS011;74383;44.552;18.100;2024-02-21T06:47:45;39.10;;;22.13;;
84244;SDS011;74383;44.552;18.100;2024-02-21T06:50:18;43.30;;;23.23;;
84244;SDS011;74383;44.552;18.100;2024-02-21T06:52:44;45.92;;;20.52;;
84244;SDS011;74383;44.552;18.100;2024-02-21T06:55:09;34.72;;;18.88;;
84244;SDS011;74383;44.552;18.100;2024-02-21T06:57:35;39.65;;;19.35;;
84244;SDS011;74383;44.552;18.100;2024-02-21T07:00:00;44.53;;;19.77;;
84244;SDS011;74383;44.552;18.100;2024-02-21T07:02:26;42.83;;;21.50;;
84244;SDS011;74383;44.552;18.100;2024-02-21T07:04:52;44.47;;;21.95;;
84244;SDS011;74383;44.552;18.100;2024-02-21T07:07:17;40.03;;;21.42;;
84244;SDS011;74383;44.552;18.100;2024-02-21T07:09:43;42.17;;;22.48;;
84244;SDS011;74383;44.552;18.100;2024-02-21T07:12:09;34.78;;;19.15;;
84244;SDS011;74383;44.552;18.100;2024-02-21T07:14:36;28.50;;;16.33;;
84244;SDS011;74383;44.552;18.100;2024-02-21T07:17:01;31.60;;;16.70;;
84244;SDS011;74383;44.552;18.100;2024-02-21T07:19:27;31.52;;;16.70;;
84244;SDS011;74383;44.552;18.100;2024-02-21T07:21:54;25.83;;;13.82;;
84244;SDS011;74383;44.552;18.100;2024-02-21T07:24:19;49.47;;;23.08;;
84244;SDS011;74383;44.552;18.100;2024-02-21T07:26:45;47.28;;;22.80;;
84244;SDS011;74383;44.552;18.100;2024-02-21T07:29:11;44.20;;;22.70;;
84244;SDS011;74383;44.552;18.100;2024-02-21T07:31:43;43.92;;;24.17;;
84244;SDS011;74383;44.552;18.100;2024-02-21T07:34:09;49.17;;;26.40;;
84244;SDS011;74383;44.552;18.100;2024-02-21T07:36:35;52.13;;;29.42;;
84244;SDS011;74383;44.552;18.100;2024-02-21T07:39:04;109.03;;;53.53;;
84244;SDS011;74383;44.552;18.100;2024-02-21T07:41:30;131.68;;;62.88;;
84244;SDS011;74383;44.552;18.100;2024-02-21T07:43:57;121.95;;;57.05;;
84244;SDS011;74383;44.552;18.100;2024-02-21T07:46:23;120.28;;;59.38;;
84244;SDS011;74383;44.552;18.100;2024-02-21T07:48:49;104.80;;;56.70;;
84244;SDS011;74383;44.552;18.100;2024-02-21T07:51:14;128.98;;;64.68;;
84244;SDS011;74383;44.552;18.100;2024-02-21T07:53:43;122.35;;;64.80;;
84244;SDS011;74383;44.552;18.100;2024-02-21T07:56:13;94.40;;;49.80;;
84244;SDS011;74383;44.552;18.100;2024-02-21T07:58:39;98.32;;;50.22;;
84244;SDS011;74383;44.552;18.100;2024-02-21T08:01:05;107.60;;;53.40;;
84244;SDS011;74383;44.552;18.100;2024-02-21T08:03:31;96.03;;;47.08;;
84244;SDS011;74383;44.552;18.100;2024-02-21T08:05:56;82.85;;;42.20;;
84244;SDS011;74383;44.552;18.100;2024-02-21T08:08:22;81.00;;;40.92;;
84244;SDS011;74383;44.552;18.100;2024-02-21T08:10:51;79.28;;;41.22;;
84244;SDS011;74383;44.552;18.100;2024-02-21T08:13:16;76.85;;;41.03;;
84244;SDS011;74383;44.552;18.100;2024-02-21T08:15:42;95.15;;;49.13;;
84244;SDS011;74383;44.552;18.100;2024-02-21T08:18:08;92.35;;;50.90;;
84244;SDS011;74383;44.552;18.100;2024-02-21T08:20:34;93.80;;;50.33;;
84244;SDS011;74383;44.552;18.100;2024-02-21T08:23:00;101.18;;;51.47;;
84244;SDS011;74383;44.552;18.100;2024-02-21T08:25:26;93.10;;;48.17;;
84244;SDS011;74383;44.552;18.100;2024-02-21T08:27:55;93.70;;;47.45;;
84244;SDS011;74383;44.552;18.100;2024-02-21T08:30:23;93.05;;;49.50;;
84244;SDS011;74383;44.552;18.100;2024-02-21T08:32:48;103.93;;;49.22;;
84244;SDS011;74383;44.552;18.100;2024-02-21T08:35:14;93.53;;;47.05;;
84244;SDS011;74383;44.552;18.100;2024-02-21T08:37:39;86.47;;;43.25;;
84244;SDS011;74383;44.552;18.100;2024-02-21T08:40:05;93.95;;;47.80;;
84244;SDS011;74383;44.552;18.100;2024-02-21T08:42:38;74.80;;;39.95;;
84244;SDS011;74383;44.552;18.100;2024-02-21T08:45:04;72.47;;;37.60;;
84244;SDS011;74383;44.552;18.100;2024-02-21T08:47:30;69.15;;;35.83;;
84244;SDS011;74383;44.552;18.100;2024-02-21T08:49:56;66.70;;;34.55;;
84244;SDS011;74383;44.552;18.100;2024-02-21T08:52:21;62.67;;;31.55;;
84244;SDS011;74383;44.552;18.100;2024-02-21T08:54:47;54.58;;;28.85;;
84244;SDS011;74383;44.552;18.100;2024-02-21T08:57:12;59.85;;;30.63;;
84244;SDS011;74383;44.552;18.100;2024-02-21T08:59:40;61.38;;;33.33;;
84244;SDS011;74383;44.552;18.100;2024-02-21T09:02:06;61.40;;;31.63;;
84244;SDS011;74383;44.552;18.100;2024-02-21T09:04:34;55.25;;;31.65;;
84244;SDS011;74383;44.552;18.100;2024-02-21T09:06:59;60.15;;;31.95;;
84244;SDS011;74383;44.552;18.100;2024-02-21T09:09:25;58.75;;;33.45;;
84244;SDS011;74383;44.552;18.100;2024-02-21T09:11:51;59.38;;;34.10;;
84244;SDS011;74383;44.552;18.100;2024-02-21T09:14:17;72.75;;;37.05;;
84244;SDS011;74383;44.552;18.100;2024-02-21T09:16:43;64.70;;;38.42;;
84244;SDS011;74383;44.552;18.100;2024-02-21T09:19:09;70.75;;;39.00;;
84244;SDS011;74383;44.552;18.100;2024-02-21T09:21:39;74.20;;;41.13;;
84244;SDS011;74383;44.552;18.100;2024-02-21T09:24:05;85.90;;;48.83;;
84244;SDS011;74383;44.552;18.100;2024-02-21T09:26:31;99.10;;;58.75;;
84244;SDS011;74383;44.552;18.100;2024-02-21T09:28:57;77.53;;;44.75;;
84244;SDS011;74383;44.552;18.100;2024-02-21T09:31:23;82.30;;;46.85;;
84244;SDS011;74383;44.552;18.100;2024-02-21T09:33:48;58.22;;;37.67;;
84244;SDS011;74383;44.552;18.100;2024-02-21T09:36:14;47.35;;;27.45;;
84244;SDS011;74383;44.552;18.100;2024-02-21T09:38:40;52.63;;;31.95;;
84244;SDS011;74383;44.552;18.100;2024-02-21T09:43:46;42.13;;;24.50;;
84244;SDS011;74383;44.552;18.100;2024-02-21T09:46:13;32.00;;;18.50;;
84244;SDS011;74383;44.552;18.100;2024-02-21T09:51:23;26.90;;;13.70;;
84244;SDS011;74383;44.552;18.100;2024-02-21T09:53:50;22.40;;;16.05;;
84244;SDS011;74383;44.552;18.100;2024-02-21T09:56:16;16.35;;;10.00;;
84244;SDS011;74383;44.552;18.100;2024-02-21T09:58:41;19.52;;;11.05;;
84244;SDS011;74383;44.552;18.100;2024-02-21T10:01:07;21.55;;;11.30;;
84244;SDS011;74383;44.552;18.100;2024-02-21T10:03:35;20.00;;;9.95;;
84244;SDS011;74383;44.552;18.100;2024-02-21T10:06:00;30.38;;;14.68;;
84244;SDS011;74383;44.552;18.100;2024-02-21T10:08:26;25.15;;;14.02;;
84244;SDS011;74383;44.552;18.100;2024-02-21T10:10:52;27.42;;;17.50;;
84244;SDS011;74383;44.552;18.100;2024-02-21T10:16:00;16.92;;;9.50;;
84244;SDS011;74383;44.552;18.100;2024-02-21T10:18:27;22.85;;;10.35;;
84244;SDS011;74383;44.552;18.100;2024-02-21T10:21:03;14.13;;;9.60;;
84244;SDS011;74383;44.552;18.100;2024-02-21T10:26:11;33.85;;;19.42;;
84244;SDS011;74383;44.552;18.100;2024-02-21T10:28:38;16.13;;;8.50;;
84244;SDS011;74383;44.552;18.100;2024-02-21T10:31:07;6.80;;;3.60;;
84244;SDS011;74383;44.552;18.100;2024-02-21T10:33:37;6.63;;;3.63;;
84244;SDS011;74383;44.552;18.100;2024-02-21T10:36:06;8.35;;;5.28;;
84244;SDS011;74383;44.552;18.100;2024-02-21T10:38:33;8.38;;;4.90;;
84244;SDS011;74383;44.552;18.100;2024-02-21T10:40:59;14.68;;;11.00;;
84244;SDS011;74383;44.552;18.100;2024-02-21T10:43:28;17.50;;;14.10;;
84244;SDS011;74383;44.552;18.100;2024-02-21T10:46:02;15.65;;;9.20;;
84244;SDS011;74383;44.552;18.100;2024-02-21T10:48:41;6.30;;;3.58;;
84244;SDS011;74383;44.552;18.100;2024-02-21T10:51:16;12.82;;;5.00;;
84244;SDS011;74383;44.552;18.100;2024-02-21T10:53:54;8.30;;;3.47;;
84244;SDS011;74383;44.552;18.100;2024-02-21T10:56:30;8.73;;;4.03;;
84244;SDS011;74383;44.552;18.100;2024-02-21T10:59:04;17.55;;;11.15;;
84244;SDS011;74383;44.552;18.100;2024-02-21T11:01:31;13.90;;;7.55;;
84244;SDS011;74383;44.552;18.100;2024-02-21T11:04:01;11.35;;;6.07;;
84244;SDS011;74383;44.552;18.100;2024-02-21T11:06:28;28.58;;;19.10;;
84244;SDS011;74383;44.552;18.100;2024-02-21T11:09:04;10.32;;;4.03;;
84244;SDS011;74383;44.552;18.100;2024-02-21T11:11:55;11.75;;;6.90;;
84244;SDS011;74383;44.552;18.100;2024-02-21T11:14:21;6.95;;;3.60;;
84244;SDS011;74383;44.552;18.100;2024-02-21T11:16:47;21.48;;;12.43;;
84244;SDS011;74383;44.552;18.100;2024-02-21T11:21:45;5.38;;;3.28;;
84244;SDS011;74383;44.552;18.100;2024-02-21T11:24:13;5.90;;;3.10;;
84244;SDS011;74383;44.552;18.100;2024-02-21T11:26:39;7.03;;;3.03;;
84244;SDS011;74383;44.552;18.100;2024-02-21T11:29:08;13.50;;;5.05;;
84244;SDS011;74383;44.552;18.100;2024-02-21T11:31:42;11.00;;;5.63;;
84244;SDS011;74383;44.552;18.100;2024-02-21T11:34:13;8.23;;;4.28;;
84244;SDS011;74383;44.552;18.100;2024-02-21T11:36:48;8.45;;;3.97;;
84244;SDS011;74383;44.552;18.100;2024-02-21T11:39:18;6.32;;;3.88;;
84244;SDS011;74383;44.552;18.100;2024-02-21T11:41:47;8.30;;;4.20;;
84244;SDS011;74383;44.552;18.100;2024-02-21T11:44:13;8.60;;;4.00;;
84244;SDS011;74383;44.552;18.100;2024-02-21T11:46:39;15.90;;;10.77;;
84244;SDS011;74383;44.552;18.100;2024-02-21T11:49:04;11.05;;;6.50;;
84244;SDS011;74383;44.552;18.100;2024-02-21T11:51:31;7.40;;;3.58;;
84244;SDS011;74383;44.552;18.100;2024-02-21T11:53:57;7.45;;;5.00;;
84244;SDS011;74383;44.552;18.100;2024-02-21T11:56:23;10.25;;;5.45;;
84244;SDS011;74383;44.552;18.100;2024-02-21T11:58:49;9.45;;;5.38;;
84244;SDS011;74383;44.552;18.100;2024-02-21T12:01:14;8.55;;;5.15;;
84244;SDS011;74383;44.552;18.100;2024-02-21T12:03:40;10.38;;;4.18;;
84244;SDS011;74383;44.552;18.100;2024-02-21T12:06:07;7.05;;;3.83;;
84244;SDS011;74383;44.552;18.100;2024-02-21T12:08:42;11.68;;;5.53;;
84244;SDS011;74383;44.552;18.100;2024-02-21T12:11:21;9.05;;;3.78;;
84244;SDS011;74383;44.552;18.100;2024-02-21T12:13:58;14.40;;;9.38;;
84244;SDS011;74383;44.552;18.100;2024-02-21T12:16:26;9.40;;;5.13;;
84244;SDS011;74383;44.552;18.100;2024-02-21T12:18:53;6.53;;;3.25;;
84244;SDS011;74383;44.552;18.100;2024-02-21T12:21:19;5.28;;;3.45;;
84244;SDS011;74383;44.552;18.100;2024-02-21T12:23:44;7.70;;;4.35;;
84244;SDS011;74383;44.552;18.100;2024-02-21T12:26:12;6.97;;;3.20;;
84244;SDS011;74383;44.552;18.100;2024-02-21T12:28:37;6.78;;;3.40;;
84244;SDS011;74383;44.552;18.100;2024-02-21T12:31:03;7.72;;;4.82;;
84244;SDS011;74383;44.552;18.100;2024-02-21T12:33:29;10.15;;;6.82;;
84244;SDS011;74383;44.552;18.100;2024-02-21T12:35:55;7.40;;;4.25;;
84244;SDS011;74383;44.552;18.100;2024-02-21T12:38:21;7.95;;;4.22;;
84244;SDS011;74383;44.552;18.100;2024-02-21T12:40:47;13.35;;;6.65;;
84244;SDS011;74383;44.552;18.100;2024-02-21T12:43:12;9.65;;;4.53;;
84244;SDS011;74383;44.552;18.100;2024-02-21T12:45:38;5.65;;;3.40;;
84244;SDS011;74383;44.552;18.100;2024-02-21T12:48:04;7.28;;;4.28;;
84244;SDS011;74383;44.552;18.100;2024-02-21T12:50:30;7.22;;;3.90;;
84244;SDS011;74383;44.552;18.100;2024-02-21T12:52:56;12.48;;;6.82;;
84244;SDS011;74383;44.552;18.100;2024-02-21T12:55:23;7.70;;;4.22;;
84244;SDS011;74383;44.552;18.100;2024-02-21T12:57:49;10.73;;;6.40;;
84244;SDS011;74383;44.552;18.100;2024-02-21T13:00:15;6.57;;;2.95;;
84244;SDS011;74383;44.552;18.100;2024-02-21T13:02:41;5.68;;;3.17;;
84244;SDS011;74383;44.552;18.100;2024-02-21T13:05:07;4.07;;;2.60;;
84244;SDS011;74383;44.552;18.100;2024-02-21T13:07:32;6.05;;;2.70;;
84244;SDS011;74383;44.552;18.100;2024-02-21T13:09:58;6.45;;;3.10;;
84244;SDS011;74383;44.552;18.100;2024-02-21T13:12:24;4.53;;;2.25;;
84244;SDS011;74383;44.552;18.100;2024-02-21T13:14:54;5.15;;;2.08;;
84244;SDS011;74383;44.552;18.100;2024-02-21T13:17:20;3.50;;;1.80;;
84244;SDS011;74383;44.552;18.100;2024-02-21T13:19:47;2.92;;;2.10;;
84244;SDS011;74383;44.552;18.100;2024-02-21T13:22:13;5.22;;;2.30;;
84244;SDS011;74383;44.552;18.100;2024-02-21T13:24:38;4.03;;;2.50;;
84244;SDS011;74383;44.552;18.100;2024-02-21T13:27:04;8.02;;;3.60;;
84244;SDS011;74383;44.552;18.100;2024-02-21T13:29:30;6.68;;;3.80;;
84244;SDS011;74383;44.552;18.100;2024-02-21T13:31:55;3.63;;;2.20;;
84244;SDS011;74383;44.552;18.100;2024-02-21T13:34:21;4.95;;;2.88;;
84244;SDS011;74383;44.552;18.100;2024-02-21T13:36:46;4.68;;;2.63;;
84244;SDS011;74383;44.552;18.100;2024-02-21T13:39:12;4.70;;;2.30;;
84244;SDS011;74383;44.552;18.100;2024-02-21T13:41:41;6.53;;;2.70;;
84244;SDS011;74383;44.552;18.100;2024-02-21T13:44:07;4.43;;;2.38;;
84244;SDS011;74383;44.552;18.100;2024-02-21T13:46:34;3.45;;;2.28;;
84244;SDS011;74383;44.552;18.100;2024-02-21T13:49:05;3.83;;;2.47;;
84244;SDS011;74383;44.552;18.100;2024-02-21T13:51:35;5.95;;;3.95;;
84244;SDS011;74383;44.552;18.100;2024-02-21T13:54:06;15.60;;;13.90;;
84244;SDS011;74383;44.552;18.100;2024-02-21T13:56:34;26.00;;;23.40;;
84244;SDS011;74383;44.552;18.100;2024-02-21T13:59:00;8.52;;;4.70;;
84244;SDS011;74383;44.552;18.100;2024-02-21T14:01:26;6.50;;;3.30;;
84244;SDS011;74383;44.552;18.100;2024-02-21T14:03:53;4.70;;;2.10;;
84244;SDS011;74383;44.552;18.100;2024-02-21T14:06:19;3.50;;;2.20;;
84244;SDS011;74383;44.552;18.100;2024-02-21T14:08:44;3.13;;;2.00;;
84244;SDS011;74383;44.552;18.100;2024-02-21T14:11:10;3.38;;;1.90;;
84244;SDS011;74383;44.552;18.100;2024-02-21T14:13:36;5.63;;;1.50;;
84244;SDS011;74383;44.552;18.100;2024-02-21T14:16:02;2.88;;;1.80;;
84244;SDS011;74383;44.552;18.100;2024-02-21T14:18:27;4.88;;;1.70;;
84244;SDS011;74383;44.552;18.100;2024-02-21T14:20:53;2.60;;;1.50;;
84244;SDS011;74383;44.552;18.100;2024-02-21T14:23:18;3.33;;;1.50;;